sensor_id;sensor_type;location;lat;lon;timestamp;P1;durP1;ratioP1;P2;durP2;ratioP2
7887;SDS011;3989;48.810;9.208;2022-10-16T00:00:48;2.23;;;1.30;;
7887;SDS011;3989;48.810;9.208;2022-10-16T00:03:17;2.87;;;1.03;;
7887;SDS011;3989;48.810;9.208;2022-10-16T00:05:48;2.40;;;1.40;;
7887;SDS011;3989;48.810;9.208;2022-10-16T00:08:25;2.40;;;1.20;;
7887;SDS011;3989;48.810;9.208;2022-10-16T00:11:00;1.97;;;1.33;;
7887;SDS011;3989;48.810;9.208;2022-10-16T00:13:35;1.37;;;1.30;;
7887;SDS011;3989;48.810;9.208;2022-10-16T00:16:05;1.10;;;1.00;;
7887;SDS011;3989;48.810;9.208;2022-10-16T00:18:55;1.90;;;1.13;;
7887;SDS011;3989;48.810;9.208;2022-10-16T00:21:28;1.53;;;1.43;;
7887;SDS011;3989;48.810;9.208;2022-10-16T00:24:05;1.40;;;1.23;;
7887;SDS011;3989;48.810;9.208;2022-10-16T00:26:51;1.30;;;1.20;;
7887;SDS011;3989;48.810;9.208;2022-10-16T00:29:24;1.20;;;1.20;;
7887;SDS011;3989;48.810;9.208;2022-10-16T00:32:11;3.20;;;1.63;;
7887;SDS011;3989;48.810;9.208;2022-10-16T00:34:52;1.43;;;1.40;;
7887;SDS011;3989;48.810;9.208;2022-10-16T00:37:25;3.10;;;1.47;;
7887;SDS011;3989;48.810;9.208;2022-10-16T00:40:19;1.60;;;1.50;;
7887;SDS011;3989;48.810;9.208;2022-10-16T00:42:50;1.50;;;1.40;;
7887;SDS011;3989;48.810;9.208;2022-10-16T00:45:23;1.63;;;1.60;;
7887;SDS011;3989;48.810;9.208;2022-10-16T00:48:07;2.20;;;1.20;;
7887;SDS011;3989;48.810;9.208;2022-10-16T00:50:37;1.40;;;1.30;;
7887;SDS011;3989;48.810;9.208;2022-10-16T00:53:15;1.33;;;1.33;;
7887;SDS011;3989;48.810;9.208;2022-10-16T00:55:54;1.97;;;1.87;;
7887;SDS011;3989;48.810;9.208;2022-10-16T00:58:24;1.80;;;1.70;;
7887;SDS011;3989;48.810;9.208;2022-10-16T01:00:59;1.40;;;1.30;;
7887;SDS011;3989;48.810;9.208;2022-10-16T01:03:28;2.00;;;1.90;;
7887;SDS011;3989;48.810;9.208;2022-10-16T01:06:09;2.33;;;1.47;;
7887;SDS011;3989;48.810;9.208;2022-10-16T01:09:11;1.20;;;1.20;;
7887;SDS011;3989;48.810;9.208;2022-10-16T01:14:48;2.07;;;1.53;;
7887;SDS011;3989;48.810;9.208;2022-10-16T01:17:31;2.33;;;1.40;;
7887;SDS011;3989;48.810;9.208;2022-10-16T01:20:10;1.70;;;1.60;;
7887;SDS011;3989;48.810;9.208;2022-10-16T01:22:54;3.93;;;1.37;;
7887;SDS011;3989;48.810;9.208;2022-10-16T01:25:39;1.80;;;1.70;;
7887;SDS011;3989;48.810;9.208;2022-10-16T01:28:30;1.83;;;1.73;;
7887;SDS011;3989;48.810;9.208;2022-10-16T01:31:05;3.10;;;1.53;;
7887;SDS011;3989;48.810;9.208;2022-10-16T01:33:35;1.50;;;1.40;;
7887;SDS011;3989;48.810;9.208;2022-10-16T01:36:15;1.53;;;1.43;;
7887;SDS011;3989;48.810;9.208;2022-10-16T01:38:50;1.60;;;1.50;;
7887;SDS011;3989;48.810;9.208;2022-10-16T01:41:24;1.50;;;1.50;;
7887;SDS011;3989;48.810;9.208;2022-10-16T01:44:02;1.17;;;1.17;;
7887;SDS011;3989;48.810;9.208;2022-10-16T01:46:44;2.40;;;1.40;;
7887;SDS011;3989;48.810;9.208;2022-10-16T01:49:14;1.37;;;1.30;;
7887;SDS011;3989;48.810;9.208;2022-10-16T01:51:45;3.07;;;2.13;;
7887;SDS011;3989;48.810;9.208;2022-10-16T01:54:26;2.17;;;1.83;;
7887;SDS011;3989;48.810;9.208;2022-10-16T01:56:59;5.27;;;1.70;;
7887;SDS011;3989;48.810;9.208;2022-10-16T01:59:40;1.70;;;1.60;;
7887;SDS011;3989;48.810;9.208;2022-10-16T02:02:14;2.67;;;1.67;;
7887;SDS011;3989;48.810;9.208;2022-10-16T02:04:44;1.60;;;1.50;;
7887;SDS011;3989;48.810;9.208;2022-10-16T02:07:17;2.23;;;1.60;;
7887;SDS011;3989;48.810;9.208;2022-10-16T02:09:47;2.00;;;1.90;;
7887;SDS011;3989;48.810;9.208;2022-10-16T02:12:15;1.70;;;1.57;;
7887;SDS011;3989;48.810;9.208;2022-10-16T02:15:03;2.00;;;1.90;;
7887;SDS011;3989;48.810;9.208;2022-10-16T02:17:32;2.20;;;1.80;;
7887;SDS011;3989;48.810;9.208;2022-10-16T02:20:03;1.77;;;1.67;;
7887;SDS011;3989;48.810;9.208;2022-10-16T02:22:35;1.80;;;1.60;;
7887;SDS011;3989;48.810;9.208;2022-10-16T02:25:12;1.93;;;1.70;;
7887;SDS011;3989;48.810;9.208;2022-10-16T02:27:51;2.47;;;1.93;;
7887;SDS011;3989;48.810;9.208;2022-10-16T02:30:27;2.03;;;1.57;;
7887;SDS011;3989;48.810;9.208;2022-10-16T02:33:01;2.23;;;1.40;;
7887;SDS011;3989;48.810;9.208;2022-10-16T02:35:31;1.73;;;1.63;;
7887;SDS011;3989;48.810;9.208;2022-10-16T02:38:05;1.63;;;1.53;;
7887;SDS011;3989;48.810;9.208;2022-10-16T02:40:39;3.53;;;1.73;;
7887;SDS011;3989;48.810;9.208;2022-10-16T02:43:10;1.90;;;1.80;;
7887;SDS011;3989;48.810;9.208;2022-10-16T02:45:46;1.63;;;1.43;;
7887;SDS011;3989;48.810;9.208;2022-10-16T02:48:19;2.77;;;1.93;;
7887;SDS011;3989;48.810;9.208;2022-10-16T02:50:49;2.70;;;1.70;;
7887;SDS011;3989;48.810;9.208;2022-10-16T02:53:22;2.20;;;1.50;;
7887;SDS011;3989;48.810;9.208;2022-10-16T02:55:59;3.90;;;1.77;;
7887;SDS011;3989;48.810;9.208;2022-10-16T02:58:30;1.70;;;1.60;;
7887;SDS011;3989;48.810;9.208;2022-10-16T03:01:04;1.87;;;1.77;;
7887;SDS011;3989;48.810;9.208;2022-10-16T03:03:31;2.00;;;1.90;;
7887;SDS011;3989;48.810;9.208;2022-10-16T03:06:00;2.40;;;2.00;;
7887;SDS011;3989;48.810;9.208;2022-10-16T03:08:29;1.80;;;1.70;;
7887;SDS011;3989;48.810;9.208;2022-10-16T03:11:03;1.93;;;1.60;;
7887;SDS011;3989;48.810;9.208;2022-10-16T03:13:38;1.60;;;1.50;;
7887;SDS011;3989;48.810;9.208;2022-10-16T03:16:09;2.17;;;2.07;;
7887;SDS011;3989;48.810;9.208;2022-10-16T03:18:41;1.70;;;1.60;;
7887;SDS011;3989;48.810;9.208;2022-10-16T03:21:11;1.50;;;1.47;;
7887;SDS011;3989;48.810;9.208;2022-10-16T03:23:45;1.80;;;1.67;;
7887;SDS011;3989;48.810;9.208;2022-10-16T03:26:22;4.17;;;1.87;;
7887;SDS011;3989;48.810;9.208;2022-10-16T03:29:03;1.60;;;1.50;;
7887;SDS011;3989;48.810;9.208;2022-10-16T03:31:38;2.97;;;1.63;;
7887;SDS011;3989;48.810;9.208;2022-10-16T03:34:09;2.13;;;1.63;;
7887;SDS011;3989;48.810;9.208;2022-10-16T03:36:43;1.70;;;1.40;;
7887;SDS011;3989;48.810;9.208;2022-10-16T03:39:13;1.43;;;1.33;;
7887;SDS011;3989;48.810;9.208;2022-10-16T03:41:47;1.90;;;1.80;;
7887;SDS011;3989;48.810;9.208;2022-10-16T03:44:21;1.63;;;1.53;;
7887;SDS011;3989;48.810;9.208;2022-10-16T03:46:49;1.63;;;1.53;;
7887;SDS011;3989;48.810;9.208;2022-10-16T03:49:16;1.53;;;1.50;;
7887;SDS011;3989;48.810;9.208;2022-10-16T03:51:44;2.10;;;1.90;;
7887;SDS011;3989;48.810;9.208;2022-10-16T03:54:14;1.70;;;1.60;;
7887;SDS011;3989;48.810;9.208;2022-10-16T03:56:43;1.80;;;1.70;;
7887;SDS011;3989;48.810;9.208;2022-10-16T03:59:11;2.00;;;1.90;;
7887;SDS011;3989;48.810;9.208;2022-10-16T04:01:41;2.27;;;2.10;;
7887;SDS011;3989;48.810;9.208;2022-10-16T04:04:17;1.80;;;1.70;;
7887;SDS011;3989;48.810;9.208;2022-10-16T04:06:54;2.43;;;1.60;;
7887;SDS011;3989;48.810;9.208;2022-10-16T04:09:26;1.73;;;1.63;;
7887;SDS011;3989;48.810;9.208;2022-10-16T04:12:07;2.63;;;1.63;;
7887;SDS011;3989;48.810;9.208;2022-10-16T04:14:34;1.67;;;1.57;;
7887;SDS011;3989;48.810;9.208;2022-10-16T04:17:00;2.60;;;2.40;;
7887;SDS011;3989;48.810;9.208;2022-10-16T04:19:29;3.70;;;1.90;;
7887;SDS011;3989;48.810;9.208;2022-10-16T04:22:06;3.40;;;2.70;;
7887;SDS011;3989;48.810;9.208;2022-10-16T04:24:35;2.20;;;2.00;;
7887;SDS011;3989;48.810;9.208;2022-10-16T04:27:08;3.00;;;1.70;;
7887;SDS011;3989;48.810;9.208;2022-10-16T04:29:37;3.23;;;2.23;;
7887;SDS011;3989;48.810;9.208;2022-10-16T04:35:31;2.03;;;1.93;;
7887;SDS011;3989;48.810;9.208;2022-10-16T04:37:58;2.27;;;2.10;;
7887;SDS011;3989;48.810;9.208;2022-10-16T04:40:29;2.50;;;2.10;;
7887;SDS011;3989;48.810;9.208;2022-10-16T04:42:57;1.97;;;1.87;;
7887;SDS011;3989;48.810;9.208;2022-10-16T04:45:24;1.77;;;1.67;;
7887;SDS011;3989;48.810;9.208;2022-10-16T04:47:51;4.40;;;2.10;;
7887;SDS011;3989;48.810;9.208;2022-10-16T04:50:25;4.30;;;1.63;;
7887;SDS011;3989;48.810;9.208;2022-10-16T04:52:56;2.63;;;2.00;;
7887;SDS011;3989;48.810;9.208;2022-10-16T04:55:27;3.20;;;2.30;;
7887;SDS011;3989;48.810;9.208;2022-10-16T04:57:58;2.57;;;2.47;;
7887;SDS011;3989;48.810;9.208;2022-10-16T05:00:30;2.83;;;2.27;;
7887;SDS011;3989;48.810;9.208;2022-10-16T05:02:57;2.43;;;2.23;;
7887;SDS011;3989;48.810;9.208;2022-10-16T05:05:27;2.43;;;2.10;;
7887;SDS011;3989;48.810;9.208;2022-10-16T05:07:55;1.90;;;1.80;;
7887;SDS011;3989;48.810;9.208;2022-10-16T05:10:22;2.20;;;2.10;;
7887;SDS011;3989;48.810;9.208;2022-10-16T05:12:49;1.70;;;1.60;;
7887;SDS011;3989;48.810;9.208;2022-10-16T05:15:22;2.00;;;1.90;;
7887;SDS011;3989;48.810;9.208;2022-10-16T05:17:57;3.50;;;1.97;;
7887;SDS011;3989;48.810;9.208;2022-10-16T05:20:38;2.20;;;1.63;;
7887;SDS011;3989;48.810;9.208;2022-10-16T05:23:05;2.53;;;1.60;;
7887;SDS011;3989;48.810;9.208;2022-10-16T05:25:39;1.87;;;1.77;;
7887;SDS011;3989;48.810;9.208;2022-10-16T05:28:08;2.20;;;2.00;;
7887;SDS011;3989;48.810;9.208;2022-10-16T05:30:43;2.17;;;1.57;;
7887;SDS011;3989;48.810;9.208;2022-10-16T05:33:10;2.73;;;2.10;;
7887;SDS011;3989;48.810;9.208;2022-10-16T05:35:55;1.57;;;1.47;;
7887;SDS011;3989;48.810;9.208;2022-10-16T05:41:06;2.50;;;2.30;;
7887;SDS011;3989;48.810;9.208;2022-10-16T05:43:36;3.43;;;1.80;;
7887;SDS011;3989;48.810;9.208;2022-10-16T05:46:09;3.23;;;2.23;;
7887;SDS011;3989;48.810;9.208;2022-10-16T05:48:38;3.33;;;2.17;;
7887;SDS011;3989;48.810;9.208;2022-10-16T05:51:09;2.93;;;2.20;;
7887;SDS011;3989;48.810;9.208;2022-10-16T05:53:59;3.00;;;2.00;;
7887;SDS011;3989;48.810;9.208;2022-10-16T05:56:26;1.80;;;1.70;;
7887;SDS011;3989;48.810;9.208;2022-10-16T05:58:53;3.23;;;1.80;;
7887;SDS011;3989;48.810;9.208;2022-10-16T06:01:27;2.73;;;1.87;;
7887;SDS011;3989;48.810;9.208;2022-10-16T06:04:02;1.80;;;1.70;;
7887;SDS011;3989;48.810;9.208;2022-10-16T06:06:40;1.67;;;1.57;;
7887;SDS011;3989;48.810;9.208;2022-10-16T06:09:07;1.87;;;1.77;;
7887;SDS011;3989;48.810;9.208;2022-10-16T06:11:37;1.93;;;1.83;;
7887;SDS011;3989;48.810;9.208;2022-10-16T06:14:07;2.07;;;1.80;;
7887;SDS011;3989;48.810;9.208;2022-10-16T06:16:37;2.30;;;1.70;;
7887;SDS011;3989;48.810;9.208;2022-10-16T06:19:05;2.00;;;1.90;;
7887;SDS011;3989;48.810;9.208;2022-10-16T06:21:44;1.53;;;1.53;;
7887;SDS011;3989;48.810;9.208;2022-10-16T06:24:24;1.90;;;1.80;;
7887;SDS011;3989;48.810;9.208;2022-10-16T06:26:54;1.80;;;1.70;;
7887;SDS011;3989;48.810;9.208;2022-10-16T06:29:21;1.93;;;1.40;;
7887;SDS011;3989;48.810;9.208;2022-10-16T06:31:48;1.90;;;1.67;;
7887;SDS011;3989;48.810;9.208;2022-10-16T06:34:27;5.27;;;1.77;;
7887;SDS011;3989;48.810;9.208;2022-10-16T06:36:56;3.73;;;1.80;;
7887;SDS011;3989;48.810;9.208;2022-10-16T06:39:23;2.83;;;1.90;;
7887;SDS011;3989;48.810;9.208;2022-10-16T06:41:54;1.70;;;1.60;;
7887;SDS011;3989;48.810;9.208;2022-10-16T06:44:27;1.83;;;1.60;;
7887;SDS011;3989;48.810;9.208;2022-10-16T06:47:07;1.90;;;1.80;;
7887;SDS011;3989;48.810;9.208;2022-10-16T06:49:34;1.80;;;1.70;;
7887;SDS011;3989;48.810;9.208;2022-10-16T06:52:05;2.40;;;2.20;;
7887;SDS011;3989;48.810;9.208;2022-10-16T06:54:37;1.90;;;1.80;;
7887;SDS011;3989;48.810;9.208;2022-10-16T06:57:04;3.90;;;1.80;;
7887;SDS011;3989;48.810;9.208;2022-10-16T06:59:30;1.60;;;1.50;;
7887;SDS011;3989;48.810;9.208;2022-10-16T07:01:57;1.60;;;1.50;;
7887;SDS011;3989;48.810;9.208;2022-10-16T07:04:25;1.90;;;1.80;;
7887;SDS011;3989;48.810;9.208;2022-10-16T07:06:55;3.00;;;1.70;;
7887;SDS011;3989;48.810;9.208;2022-10-16T07:09:23;4.53;;;1.93;;
7887;SDS011;3989;48.810;9.208;2022-10-16T07:11:55;2.97;;;2.07;;
7887;SDS011;3989;48.810;9.208;2022-10-16T07:14:25;2.63;;;1.77;;
7887;SDS011;3989;48.810;9.208;2022-10-16T07:16:56;2.43;;;1.83;;
7887;SDS011;3989;48.810;9.208;2022-10-16T07:19:25;1.67;;;1.53;;
7887;SDS011;3989;48.810;9.208;2022-10-16T07:21:51;2.00;;;1.90;;
7887;SDS011;3989;48.810;9.208;2022-10-16T07:24:18;2.87;;;2.57;;
7887;SDS011;3989;48.810;9.208;2022-10-16T07:26:46;2.23;;;2.13;;
7887;SDS011;3989;48.810;9.208;2022-10-16T07:29:13;2.23;;;2.13;;
7887;SDS011;3989;48.810;9.208;2022-10-16T07:31:41;2.90;;;2.17;;
7887;SDS011;3989;48.810;9.208;2022-10-16T07:34:12;1.63;;;1.53;;
7887;SDS011;3989;48.810;9.208;2022-10-16T07:36:41;4.10;;;2.20;;
7887;SDS011;3989;48.810;9.208;2022-10-16T07:39:17;2.60;;;2.40;;
7887;SDS011;3989;48.810;9.208;2022-10-16T07:41:44;5.80;;;2.07;;
7887;SDS011;3989;48.810;9.208;2022-10-16T07:44:12;2.00;;;1.90;;
7887;SDS011;3989;48.810;9.208;2022-10-16T07:46:44;2.10;;;1.90;;
7887;SDS011;3989;48.810;9.208;2022-10-16T07:49:15;2.50;;;1.50;;
7887;SDS011;3989;48.810;9.208;2022-10-16T07:51:44;2.10;;;2.00;;
7887;SDS011;3989;48.810;9.208;2022-10-16T07:54:11;3.90;;;1.87;;
7887;SDS011;3989;48.810;9.208;2022-10-16T07:56:54;2.10;;;1.90;;
7887;SDS011;3989;48.810;9.208;2022-10-16T07:59:22;2.37;;;2.17;;
7887;SDS011;3989;48.810;9.208;2022-10-16T08:01:48;2.30;;;2.10;;
7887;SDS011;3989;48.810;9.208;2022-10-16T08:04:15;2.17;;;2.07;;
7887;SDS011;3989;48.810;9.208;2022-10-16T08:06:41;2.00;;;1.90;;
7887;SDS011;3989;48.810;9.208;2022-10-16T08:09:08;1.80;;;1.70;;
7887;SDS011;3989;48.810;9.208;2022-10-16T08:11:35;2.13;;;1.83;;
7887;SDS011;3989;48.810;9.208;2022-10-16T08:14:04;2.40;;;1.87;;
7887;SDS011;3989;48.810;9.208;2022-10-16T08:16:46;5.27;;;1.63;;
7887;SDS011;3989;48.810;9.208;2022-10-16T08:19:21;2.00;;;1.90;;
7887;SDS011;3989;48.810;9.208;2022-10-16T08:25:24;1.60;;;1.50;;
7887;SDS011;3989;48.810;9.208;2022-10-16T08:27:50;2.05;;;1.98;;
7887;SDS011;3989;48.810;9.208;2022-10-16T08:30:20;1.63;;;1.52;;
7887;SDS011;3989;48.810;9.208;2022-10-16T08:32:50;1.58;;;1.40;;
7887;SDS011;3989;48.810;9.208;2022-10-16T08:35:17;2.25;;;2.05;;
7887;SDS011;3989;48.810;9.208;2022-10-16T08:37:43;2.08;;;1.15;;
7887;SDS011;3989;48.810;9.208;2022-10-16T08:40:13;1.60;;;1.50;;
7887;SDS011;3989;48.810;9.208;2022-10-16T08:42:52;2.38;;;1.55;;
7887;SDS011;3989;48.810;9.208;2022-10-16T08:45:36;1.55;;;1.45;;
7887;SDS011;3989;48.810;9.208;2022-10-16T08:48:14;1.25;;;1.25;;
7887;SDS011;3989;48.810;9.208;2022-10-16T08:50:45;1.50;;;1.40;;
7887;SDS011;3989;48.810;9.208;2022-10-16T08:53:15;1.40;;;1.30;;
7887;SDS011;3989;48.810;9.208;2022-10-16T08:55:45;2.38;;;1.40;;
7887;SDS011;3989;48.810;9.208;2022-10-16T08:58:16;1.25;;;1.25;;
7887;SDS011;3989;48.810;9.208;2022-10-16T09:00:45;1.88;;;1.33;;
7887;SDS011;3989;48.810;9.208;2022-10-16T09:03:16;3.35;;;1.25;;
7887;SDS011;3989;48.810;9.208;2022-10-16T09:05:55;1.67;;;1.58;;
7887;SDS011;3989;48.810;9.208;2022-10-16T09:08:34;1.50;;;1.40;;
7887;SDS011;3989;48.810;9.208;2022-10-16T09:11:10;1.50;;;1.40;;
7887;SDS011;3989;48.810;9.208;2022-10-16T09:13:46;2.90;;;1.25;;
7887;SDS011;3989;48.810;9.208;2022-10-16T09:16:22;1.70;;;1.63;;
7887;SDS011;3989;48.810;9.208;2022-10-16T09:18:54;1.40;;;1.30;;
7887;SDS011;3989;48.810;9.208;2022-10-16T09:21:26;1.38;;;1.27;;
7887;SDS011;3989;48.810;9.208;2022-10-16T09:23:58;1.45;;;1.35;;
7887;SDS011;3989;48.810;9.208;2022-10-16T09:26:30;1.90;;;1.00;;
7887;SDS011;3989;48.810;9.208;2022-10-16T09:28:57;1.88;;;1.50;;
7887;SDS011;3989;48.810;9.208;2022-10-16T09:31:24;1.67;;;1.58;;
7887;SDS011;3989;48.810;9.208;2022-10-16T09:33:53;2.22;;;2.03;;
7887;SDS011;3989;48.810;9.208;2022-10-16T09:36:25;1.60;;;1.50;;
7887;SDS011;3989;48.810;9.208;2022-10-16T09:39:01;1.65;;;1.55;;
7887;SDS011;3989;48.810;9.208;2022-10-16T09:41:30;1.95;;;1.33;;
7887;SDS011;3989;48.810;9.208;2022-10-16T09:43:57;4.50;;;1.23;;
7887;SDS011;3989;48.810;9.208;2022-10-16T09:46:27;1.33;;;1.13;;
7887;SDS011;3989;48.810;9.208;2022-10-16T09:49:02;2.67;;;1.30;;
7887;SDS011;3989;48.810;9.208;2022-10-16T09:51:31;2.08;;;1.38;;
7887;SDS011;3989;48.810;9.208;2022-10-16T09:54:00;1.70;;;1.30;;
7887;SDS011;3989;48.810;9.208;2022-10-16T09:56:28;1.40;;;1.30;;
7887;SDS011;3989;48.810;9.208;2022-10-16T09:58:58;1.35;;;1.25;;
7887;SDS011;3989;48.810;9.208;2022-10-16T10:01:27;1.23;;;1.20;;
7887;SDS011;3989;48.810;9.208;2022-10-16T10:04:03;1.20;;;1.20;;
7887;SDS011;3989;48.810;9.208;2022-10-16T10:06:40;1.65;;;1.40;;
7887;SDS011;3989;48.810;9.208;2022-10-16T10:09:16;1.20;;;1.20;;
7887;SDS011;3989;48.810;9.208;2022-10-16T10:11:53;2.65;;;1.58;;
7887;SDS011;3989;48.810;9.208;2022-10-16T10:14:34;1.77;;;1.25;;
7887;SDS011;3989;48.810;9.208;2022-10-16T10:17:18;1.30;;;1.30;;
7887;SDS011;3989;48.810;9.208;2022-10-16T10:19:54;3.72;;;1.25;;
7887;SDS011;3989;48.810;9.208;2022-10-16T10:22:30;1.35;;;1.25;;
7887;SDS011;3989;48.810;9.208;2022-10-16T10:25:00;1.65;;;1.55;;
7887;SDS011;3989;48.810;9.208;2022-10-16T10:27:52;3.40;;;2.45;;
7887;SDS011;3989;48.810;9.208;2022-10-16T10:30:37;2.35;;;1.90;;
7887;SDS011;3989;48.810;9.208;2022-10-16T10:33:16;2.38;;;1.20;;
7887;SDS011;3989;48.810;9.208;2022-10-16T10:35:52;1.38;;;1.38;;
7887;SDS011;3989;48.810;9.208;2022-10-16T10:38:27;1.40;;;1.40;;
7887;SDS011;3989;48.810;9.208;2022-10-16T10:41:04;1.33;;;1.33;;
7887;SDS011;3989;48.810;9.208;2022-10-16T10:43:47;1.50;;;1.40;;
7887;SDS011;3989;48.810;9.208;2022-10-16T10:46:25;3.13;;;1.38;;
7887;SDS011;3989;48.810;9.208;2022-10-16T10:49:02;0.90;;;0.90;;
7887;SDS011;3989;48.810;9.208;2022-10-16T10:51:42;1.38;;;1.23;;
7887;SDS011;3989;48.810;9.208;2022-10-16T10:54:17;1.75;;;0.98;;
7887;SDS011;3989;48.810;9.208;2022-10-16T10:56:51;1.02;;;1.02;;
7887;SDS011;3989;48.810;9.208;2022-10-16T10:59:37;1.50;;;1.20;;
7887;SDS011;3989;48.810;9.208;2022-10-16T11:02:18;1.20;;;1.10;;
7887;SDS011;3989;48.810;9.208;2022-10-16T11:04:59;1.65;;;1.27;;
7887;SDS011;3989;48.810;9.208;2022-10-16T11:07:49;1.70;;;1.10;;
7887;SDS011;3989;48.810;9.208;2022-10-16T11:10:28;1.35;;;1.30;;
7887;SDS011;3989;48.810;9.208;2022-10-16T11:13:00;1.27;;;1.23;;
7887;SDS011;3989;48.810;9.208;2022-10-16T11:15:42;0.90;;;0.90;;
7887;SDS011;3989;48.810;9.208;2022-10-16T11:18:11;1.25;;;1.25;;
7887;SDS011;3989;48.810;9.208;2022-10-16T11:20:45;1.40;;;1.17;;
7887;SDS011;3989;48.810;9.208;2022-10-16T11:23:20;2.17;;;1.30;;
7887;SDS011;3989;48.810;9.208;2022-10-16T11:25:51;1.48;;;1.42;;
7887;SDS011;3989;48.810;9.208;2022-10-16T11:28:20;1.30;;;1.30;;
7887;SDS011;3989;48.810;9.208;2022-10-16T11:30:54;1.20;;;1.20;;
7887;SDS011;3989;48.810;9.208;2022-10-16T11:33:29;1.10;;;1.10;;
7887;SDS011;3989;48.810;9.208;2022-10-16T11:36:01;1.60;;;1.23;;
7887;SDS011;3989;48.810;9.208;2022-10-16T11:38:38;3.72;;;1.45;;
7887;SDS011;3989;48.810;9.208;2022-10-16T11:41:10;0.90;;;0.90;;
7887;SDS011;3989;48.810;9.208;2022-10-16T11:43:46;2.75;;;1.17;;
7887;SDS011;3989;48.810;9.208;2022-10-16T11:46:20;2.35;;;1.20;;
7887;SDS011;3989;48.810;9.208;2022-10-16T11:48:52;0.98;;;0.98;;
7887;SDS011;3989;48.810;9.208;2022-10-16T11:51:29;1.70;;;1.20;;
7887;SDS011;3989;48.810;9.208;2022-10-16T11:54:04;1.92;;;1.30;;
7887;SDS011;3989;48.810;9.208;2022-10-16T11:56:41;1.88;;;1.00;;
7887;SDS011;3989;48.810;9.208;2022-10-16T11:59:13;1.02;;;1.02;;
7887;SDS011;3989;48.810;9.208;2022-10-16T12:01:47;3.25;;;1.20;;
7887;SDS011;3989;48.810;9.208;2022-10-16T12:04:20;1.13;;;1.08;;
7887;SDS011;3989;48.810;9.208;2022-10-16T12:06:55;1.67;;;1.38;;
7887;SDS011;3989;48.810;9.208;2022-10-16T12:09:28;1.00;;;1.00;;
7887;SDS011;3989;48.810;9.208;2022-10-16T12:11:56;1.63;;;1.13;;
7887;SDS011;3989;48.810;9.208;2022-10-16T12:14:34;0.88;;;0.88;;
7887;SDS011;3989;48.810;9.208;2022-10-16T12:17:03;0.90;;;0.90;;
7887;SDS011;3989;48.810;9.208;2022-10-16T12:19:56;1.10;;;1.10;;
7887;SDS011;3989;48.810;9.208;2022-10-16T12:22:24;1.65;;;1.10;;
7887;SDS011;3989;48.810;9.208;2022-10-16T12:24:56;1.10;;;1.10;;
7887;SDS011;3989;48.810;9.208;2022-10-16T12:27:24;0.90;;;0.90;;
7887;SDS011;3989;48.810;9.208;2022-10-16T12:29:54;2.35;;;0.70;;
7887;SDS011;3989;48.810;9.208;2022-10-16T12:32:23;4.43;;;1.05;;
7887;SDS011;3989;48.810;9.208;2022-10-16T12:34:55;1.00;;;1.00;;
7887;SDS011;3989;48.810;9.208;2022-10-16T12:37:22;1.77;;;1.20;;
7887;SDS011;3989;48.810;9.208;2022-10-16T12:39:52;1.10;;;1.10;;
7887;SDS011;3989;48.810;9.208;2022-10-16T12:42:31;1.38;;;1.08;;
7887;SDS011;3989;48.810;9.208;2022-10-16T12:44:59;1.77;;;0.90;;
7887;SDS011;3989;48.810;9.208;2022-10-16T12:47:36;1.42;;;1.13;;
7887;SDS011;3989;48.810;9.208;2022-10-16T12:50:23;1.30;;;1.20;;
7887;SDS011;3989;48.810;9.208;2022-10-16T12:53:02;1.02;;;1.02;;
7887;SDS011;3989;48.810;9.208;2022-10-16T12:55:31;2.88;;;1.30;;
7887;SDS011;3989;48.810;9.208;2022-10-16T12:58:13;1.05;;;0.95;;
7887;SDS011;3989;48.810;9.208;2022-10-16T13:00:50;2.15;;;1.40;;
7887;SDS011;3989;48.810;9.208;2022-10-16T13:03:25;2.83;;;1.05;;
7887;SDS011;3989;48.810;9.208;2022-10-16T13:06:14;1.13;;;1.13;;
7887;SDS011;3989;48.810;9.208;2022-10-16T13:09:00;1.70;;;1.25;;
7887;SDS011;3989;48.810;9.208;2022-10-16T13:11:51;1.40;;;1.27;;
7887;SDS011;3989;48.810;9.208;2022-10-16T13:17:38;1.00;;;1.00;;
7887;SDS011;3989;48.810;9.208;2022-10-16T13:20:12;2.95;;;1.70;;
7887;SDS011;3989;48.810;9.208;2022-10-16T13:22:47;1.67;;;1.35;;
7887;SDS011;3989;48.810;9.208;2022-10-16T13:25:27;1.00;;;1.00;;
7887;SDS011;3989;48.810;9.208;2022-10-16T13:28:02;1.30;;;1.20;;
7887;SDS011;3989;48.810;9.208;2022-10-16T13:30:30;3.05;;;1.20;;
7887;SDS011;3989;48.810;9.208;2022-10-16T13:33:02;1.10;;;1.10;;
7887;SDS011;3989;48.810;9.208;2022-10-16T13:35:34;1.35;;;1.35;;
7887;SDS011;3989;48.810;9.208;2022-10-16T13:38:05;1.65;;;1.23;;
7887;SDS011;3989;48.810;9.208;2022-10-16T13:40:53;1.00;;;1.00;;
7887;SDS011;3989;48.810;9.208;2022-10-16T13:43:22;1.40;;;1.40;;
7887;SDS011;3989;48.810;9.208;2022-10-16T13:45:54;1.98;;;1.30;;
7887;SDS011;3989;48.810;9.208;2022-10-16T13:48:24;1.52;;;1.48;;
7887;SDS011;3989;48.810;9.208;2022-10-16T13:51:00;1.73;;;1.20;;
7887;SDS011;3989;48.810;9.208;2022-10-16T13:53:29;2.20;;;1.25;;
7887;SDS011;3989;48.810;9.208;2022-10-16T13:56:02;2.17;;;0.90;;
7887;SDS011;3989;48.810;9.208;2022-10-16T13:58:30;1.23;;;1.17;;
7887;SDS011;3989;48.810;9.208;2022-10-16T14:00:58;1.92;;;1.42;;
7887;SDS011;3989;48.810;9.208;2022-10-16T14:03:31;1.75;;;1.10;;
7887;SDS011;3989;48.810;9.208;2022-10-16T14:06:06;2.30;;;1.10;;
7887;SDS011;3989;48.810;9.208;2022-10-16T14:08:40;1.50;;;1.40;;
7887;SDS011;3989;48.810;9.208;2022-10-16T14:11:09;1.05;;;1.05;;
7887;SDS011;3989;48.810;9.208;2022-10-16T14:13:43;1.00;;;1.00;;
7887;SDS011;3989;48.810;9.208;2022-10-16T14:16:22;1.50;;;1.30;;
7887;SDS011;3989;48.810;9.208;2022-10-16T14:18:58;1.08;;;1.08;;
7887;SDS011;3989;48.810;9.208;2022-10-16T14:21:32;1.20;;;1.10;;
7887;SDS011;3989;48.810;9.208;2022-10-16T14:24:19;1.50;;;1.40;;
7887;SDS011;3989;48.810;9.208;2022-10-16T14:26:52;2.33;;;1.70;;
7887;SDS011;3989;48.810;9.208;2022-10-16T14:29:20;1.60;;;1.50;;
7887;SDS011;3989;48.810;9.208;2022-10-16T14:31:55;1.48;;;1.42;;
7887;SDS011;3989;48.810;9.208;2022-10-16T14:34:29;1.35;;;1.20;;
7887;SDS011;3989;48.810;9.208;2022-10-16T14:36:58;2.47;;;1.30;;
7887;SDS011;3989;48.810;9.208;2022-10-16T14:39:35;1.40;;;1.30;;
7887;SDS011;3989;48.810;9.208;2022-10-16T14:42:02;1.35;;;1.27;;
7887;SDS011;3989;48.810;9.208;2022-10-16T14:44:31;3.65;;;1.75;;
7887;SDS011;3989;48.810;9.208;2022-10-16T14:47:06;1.52;;;1.30;;
7887;SDS011;3989;48.810;9.208;2022-10-16T14:49:42;1.27;;;1.20;;
7887;SDS011;3989;48.810;9.208;2022-10-16T14:52:09;1.80;;;1.30;;
7887;SDS011;3989;48.810;9.208;2022-10-16T14:54:37;1.58;;;1.40;;
7887;SDS011;3989;48.810;9.208;2022-10-16T14:57:16;2.58;;;1.50;;
7887;SDS011;3989;48.810;9.208;2022-10-16T15:00:00;1.55;;;1.45;;
7887;SDS011;3989;48.810;9.208;2022-10-16T15:02:31;1.75;;;1.65;;
7887;SDS011;3989;48.810;9.208;2022-10-16T15:05:14;1.65;;;1.55;;
7887;SDS011;3989;48.810;9.208;2022-10-16T15:07:58;1.55;;;1.55;;
7887;SDS011;3989;48.810;9.208;2022-10-16T15:13:19;1.77;;;1.67;;
7887;SDS011;3989;48.810;9.208;2022-10-16T15:15:46;2.03;;;1.92;;
7887;SDS011;3989;48.810;9.208;2022-10-16T15:18:16;2.00;;;1.80;;
7887;SDS011;3989;48.810;9.208;2022-10-16T15:23:33;1.77;;;1.67;;
7887;SDS011;3989;48.810;9.208;2022-10-16T15:26:00;2.78;;;1.63;;
7887;SDS011;3989;48.810;9.208;2022-10-16T15:28:27;2.40;;;1.70;;
7887;SDS011;3989;48.810;9.208;2022-10-16T15:30:54;1.75;;;1.65;;
7887;SDS011;3989;48.810;9.208;2022-10-16T15:33:23;1.85;;;1.75;;
7887;SDS011;3989;48.810;9.208;2022-10-16T15:35:57;1.98;;;1.42;;
7887;SDS011;3989;48.810;9.208;2022-10-16T15:38:31;1.92;;;1.63;;
7887;SDS011;3989;48.810;9.208;2022-10-16T15:40:58;1.48;;;1.42;;
7887;SDS011;3989;48.810;9.208;2022-10-16T15:43:29;2.03;;;1.40;;
7887;SDS011;3989;48.810;9.208;2022-10-16T15:45:59;1.77;;;1.67;;
7887;SDS011;3989;48.810;9.208;2022-10-16T15:48:30;3.28;;;1.98;;
7887;SDS011;3989;48.810;9.208;2022-10-16T15:51:01;1.83;;;1.73;;
7887;SDS011;3989;48.810;9.208;2022-10-16T15:53:42;1.70;;;1.60;;
7887;SDS011;3989;48.810;9.208;2022-10-16T15:56:13;2.30;;;2.10;;
7887;SDS011;3989;48.810;9.208;2022-10-16T15:58:44;2.33;;;1.95;;
7887;SDS011;3989;48.810;9.208;2022-10-16T16:01:11;1.60;;;1.50;;
7887;SDS011;3989;48.810;9.208;2022-10-16T16:03:41;4.53;;;1.98;;
7887;SDS011;3989;48.810;9.208;2022-10-16T16:06:08;2.47;;;1.60;;
7887;SDS011;3989;48.810;9.208;2022-10-16T16:08:39;1.60;;;1.50;;
7887;SDS011;3989;48.810;9.208;2022-10-16T16:11:08;4.18;;;1.55;;
7887;SDS011;3989;48.810;9.208;2022-10-16T16:13:41;1.88;;;1.50;;